Time;durP1;ratioP1;P1;durP2;ratioP2;P2;SDS_P1;SDS_P2;PMS_P1;PMS_P2;Temp;Humidity;BMP_temperature;BMP_pressure;BME280_temperature;BME280_humidity;BME280_pressure;Samples;Min_cycle;Max_cycle;Signal;HPM_P1;HPM_P2
2022/04/21 00:00:27;;;;;;;;;11.75;11.75;;;;;17.88;34.00;100450.56;2105287;27;48333;-51
2022/04/21 00:01:28;;;;;;;;;8.50;8.50;;;;;17.88;33.62;100450.56;2094485;28;47260;-52
2022/04/21 00:02:28;;;;;;;;;11.75;11.75;;;;;17.89;33.68;100451.44;2092148;28;46930;-54
2022/04/21 00:03:28;;;;;;;;;9.75;9.75;;;;;17.90;33.59;100445.97;2105218;27;47389;-52
2022/04/21 00:04:30;;;;;;;;;11.00;11.00;;;;;17.92;33.77;100445.94;2103021;27;47602;-52
2022/04/21 00:05:32;;;;;;;;;9.00;9.00;;;;;17.92;33.67;100448.59;2109125;27;47795;-54
2022/04/21 00:06:33;;;;;;;;;10.40;9.20;;;;;17.93;33.65;100450.34;2108224;27;47522;-54
2022/04/21 00:07:34;;;;;;;;;9.60;9.60;;;;;17.92;33.83;100449.47;2096410;28;47992;-54
2022/04/21 00:08:34;;;;;;;;;8.75;8.75;;;;;17.91;33.76;100444.16;2095654;28;48149;-53
2022/04/21 00:09:35;;;;;;;;;10.00;9.25;;;;;17.88;33.69;100455.94;2102519;27;47874;-53
2022/04/21 00:10:35;;;;;;;;;10.00;9.00;;;;;17.87;34.04;100454.22;2100673;27;47860;-55
2022/04/21 00:11:35;;;;;;;;;5.25;5.25;;;;;17.87;33.58;100443.47;2102091;27;46804;-54
2022/04/21 00:12:36;;;;;;;;;9.00;9.00;;;;;17.87;34.00;100446.16;2101657;27;47822;-55
2022/04/21 00:13:37;;;;;;;;;9.75;9.75;;;;;17.86;33.66;100441.75;2101657;27;47103;-53
2022/04/21 00:14:37;;;;;;;;;8.00;7.25;;;;;17.85;33.93;100449.88;2090458;28;47328;-54
2022/04/21 00:15:38;;;;;;;;;10.25;9.00;;;;;17.83;33.83;100444.63;2089968;28;47424;-51
2022/04/21 00:16:38;;;;;;;;;7.25;7.25;;;;;17.84;33.56;100437.44;2103747;27;48094;-54
2022/04/21 00:17:39;;;;;;;;;10.50;10.50;;;;;17.84;33.63;100443.66;2101715;27;47656;-54
2022/04/21 00:18:39;;;;;;;;;10.00;10.00;;;;;17.84;33.91;100445.47;2097841;27;47715;-54
2022/04/21 00:19:40;;;;;;;;;9.25;9.25;;;;;17.84;34.07;100437.44;2100176;27;47407;-55
2022/04/21 00:20:40;;;;;;;;;11.00;10.50;;;;;17.84;33.93;100432.91;2103449;27;47618;-54
2022/04/21 00:24:18;;;;;;;;;9.00;9.00;;;;;17.88;33.68;100436.28;2098510;27;48209;-55
2022/04/21 00:25:19;;;;;;;;;9.00;8.50;;;;;17.88;33.81;100430.91;2109187;27;47677;-55
2022/04/21 00:26:20;;;;;;;;;10.50;8.75;;;;;17.89;33.59;100429.97;2104480;27;47458;-52
2022/04/21 00:27:20;;;;;;;;;11.00;10.00;;;;;17.89;33.87;100425.47;2091122;28;47263;-53
2022/04/21 00:28:21;;;;;;;;;10.00;10.00;;;;;17.90;33.67;100426.31;2093348;28;47317;-55
2022/04/21 00:29:22;;;;;;;;;11.00;10.00;;;;;17.90;33.47;100426.31;2105466;27;47973;-53
2022/04/21 00:30:22;;;;;;;;;8.00;8.00;;;;;17.90;33.92;100426.31;2102981;27;47101;-52
2022/04/21 00:31:23;;;;;;;;;11.00;11.00;;;;;17.90;33.50;100421.81;2104487;27;47547;-53
2022/04/21 00:32:23;;;;;;;;;9.50;9.50;;;;;17.90;33.98;100423.63;2107458;27;47422;-54
2022/04/21 00:33:24;;;;;;;;;10.75;10.00;;;;;17.90;33.59;100420.97;2104326;27;48012;-51
2022/04/21 00:34:24;;;;;;;;;9.50;9.00;;;;;17.90;33.96;100419.13;2100098;27;47088;-54
2022/04/21 00:35:25;;;;;;;;;12.25;10.50;;;;;17.92;33.73;100421.75;2103358;27;47669;-51
2022/04/21 00:36:25;;;;;;;;;10.50;8.75;;;;;17.92;33.83;100413.72;2102874;27;47433;-52
2022/04/21 00:37:26;;;;;;;;;8.75;8.75;;;;;17.93;33.92;100416.31;2104731;27;48164;-52
2022/04/21 00:38:26;;;;;;;;;9.50;8.75;;;;;17.92;33.69;100409.22;2103604;27;48115;-53
2022/04/21 00:39:27;;;;;;;;;15.00;12.00;;;;;17.94;33.44;100419.84;2103752;27;47526;-53
2022/04/21 00:40:30;;;;;;;;;11.00;10.50;;;;;17.94;33.72;100419.84;2105465;27;47804;-53
2022/04/21 00:41:30;;;;;;;;;10.20;10.20;;;;;17.92;33.68;100417.25;2107639;27;47540;-52
2022/04/21 00:42:31;;;;;;;;;10.25;9.50;;;;;17.92;33.82;100409.22;2104251;27;48292;-53
2022/04/21 00:43:31;;;;;;;;;10.00;10.00;;;;;17.92;33.50;100419.06;2104660;27;47324;-55
2022/04/21 00:44:33;;;;;;;;;9.75;9.50;;;;;17.91;33.64;100425.38;2099947;27;47493;-53
2022/04/21 00:45:34;;;;;;;;;11.60;9.00;;;;;17.93;33.76;100415.44;2102467;27;47439;-55
2022/04/21 00:46:39;;;;;;;;;7.60;7.60;;;;;17.93;33.44;100421.66;2103235;27;47319;-52
2022/04/21 00:47:42;;;;;;;;;9.40;9.40;;;;;17.93;33.66;100420.81;2101978;28;47546;-54
2022/04/21 00:48:43;;;;;;;;;9.80;9.80;;;;;17.93;33.44;100424.34;2102129;27;47406;-53
2022/04/21 00:49:45;;;;;;;;;11.00;9.00;;;;;17.92;33.67;100428.00;2101108;27;47930;-54
2022/04/21 00:50:46;;;;;;;;;8.20;8.20;;;;;17.92;33.23;100419.06;2096124;28;47852;-52
2022/04/21 00:51:47;;;;;;;;;8.00;8.00;;;;;17.92;33.72;100419.94;2103947;27;47689;-53
2022/04/21 00:52:49;;;;;;;;;9.40;8.40;;;;;17.92;33.01;100422.63;2096805;28;47840;-54
2022/04/21 00:53:50;;;;;;;;;10.20;8.20;;;;;17.92;33.49;100419.94;2092725;28;47922;-55
2022/04/21 00:54:50;;;;;;;;;9.75;7.50;;;;;17.92;33.22;100422.63;2091674;28;47845;-54
2022/04/21 00:55:52;;;;;;;;;10.00;9.25;;;;;17.92;33.36;100424.44;2093085;28;47903;-53
2022/04/21 00:56:53;;;;;;;;;6.40;6.40;;;;;17.92;33.59;100419.94;2101926;27;47548;-54
2022/04/21 00:57:55;;;;;;;;;8.50;8.50;;;;;17.92;33.49;100413.72;2105707;27;47717;-54
2022/04/21 00:58:57;;;;;;;;;7.20;7.00;;;;;17.93;33.60;100415.44;2103939;28;47721;-52
2022/04/21 00:59:58;;;;;;;;;7.00;7.00;;;;;17.89;33.36;100412.03;2102706;27;48147;-52
2022/04/21 01:00:59;;;;;;;;;8.00;8.00;;;;;17.89;33.35;100411.16;2099710;27;47661;-53
2022/04/21 01:03:22;;;;;;;;;12.40;9.80;;;;;17.83;33.20;100407.03;2098521;27;47517;-52
2022/04/21 01:04:23;;;;;;;;;9.80;9.80;;;;;17.80;33.59;100403.66;2104051;27;47929;-54
2022/04/21 01:05:26;;;;;;;;;8.75;8.75;;;;;17.75;33.45;100400.34;2101273;28;48248;-52
2022/04/21 01:06:27;;;;;;;;;10.00;10.00;;;;;17.70;33.37;100408.69;2101911;28;47393;-53
2022/04/21 01:07:27;;;;;;;;;10.00;9.00;;;;;17.64;33.42;100396.41;2083964;28;47439;-55
2022/04/21 01:08:27;;;;;;;;;7.75;7.00;;;;;17.59;33.83;100403.00;2085958;28;48051;-55
2022/04/21 01:09:28;;;;;;;;;7.00;7.00;;;;;17.53;33.91;100397.97;2103571;27;47797;-54
2022/04/21 01:10:30;;;;;;;;;11.00;11.00;;;;;17.49;33.73;100393.72;2106944;27;48127;-55
2022/04/21 01:11:30;;;;;;;;;9.40;9.40;;;;;17.42;33.71;100389.66;2093054;28;48227;-55
2022/04/21 01:12:32;;;;;;;;;10.00;9.75;;;;;17.38;33.68;100394.31;2093157;28;48085;-55
2022/04/21 01:13:32;;;;;;;;;7.80;7.80;;;;;17.33;34.03;100394.56;2101391;27;48243;-51
2022/04/21 01:14:32;;;;;;;;;8.50;8.50;;;;;17.30;34.29;100391.22;2105181;27;47900;-54
2022/04/21 01:15:33;;;;;;;;;10.00;9.25;;;;;17.25;33.92;100382.53;2102936;27;47637;-54
2022/04/21 01:16:33;;;;;;;;;13.00;11.25;;;;;17.24;34.47;100386.16;2103123;28;47545;-54
2022/04/21 01:17:36;;;;;;;;;7.75;7.75;;;;;17.23;34.27;100392.47;2102144;27;48309;-53
2022/04/21 01:18:37;;;;;;;;;12.00;12.00;;;;;17.21;34.03;100389.00;2105943;27;48101;-54
2022/04/21 01:19:37;;;;;;;;;10.50;9.00;;;;;17.20;34.24;100396.19;2098947;28;47445;-54
2022/04/21 01:20:38;;;;;;;;;9.25;9.25;;;;;17.20;34.01;100388.16;2094935;28;47922;-54
2022/04/21 01:21:38;;;;;;;;;11.50;9.25;;;;;17.21;34.23;100391.69;2101908;27;47611;-53
2022/04/21 01:22:39;;;;;;;;;10.75;10.50;;;;;17.21;34.40;100397.06;2103865;27;47934;-55
2022/04/21 01:23:39;;;;;;;;;8.50;8.50;;;;;17.19;34.39;100391.78;2095044;28;47839;-51
2022/04/21 01:24:39;;;;;;;;;10.00;9.50;;;;;17.18;34.74;100391.88;2095094;28;47821;-53
2022/04/21 01:25:40;;;;;;;;;8.67;8.67;;;;;17.17;34.65;100387.47;2100779;27;47580;-52
2022/04/21 01:26:40;;;;;;;;;10.00;9.50;;;;;17.16;34.78;100391.09;2089117;28;47435;-55
2022/04/21 01:27:42;;;;;;;;;9.25;9.25;;;;;17.15;34.67;100384.88;2084994;28;47646;-53
2022/04/21 01:28:45;;;;;;;;;9.80;9.20;;;;;17.17;34.30;100387.47;2106214;27;47578;-54
2022/04/21 01:29:45;;;;;;;;;8.00;8.00;;;;;17.16;34.50;100386.59;2104667;27;48286;-53
2022/04/21 01:30:46;;;;;;;;;11.00;11.00;;;;;17.17;34.57;100387.47;2103114;27;47514;-53
2022/04/21 01:31:46;;;;;;;;;0.25;0.25;;;;;17.17;34.41;100388.31;2100416;27;47425;-55
2022/04/21 01:32:51;;;;;;;;;7.50;7.50;;;;;17.19;34.47;100385.56;2096705;27;47487;-56
2022/04/21 01:33:51;;;;;;;;;10.20;10.00;;;;;17.20;34.70;100389.97;2100238;27;47246;-55
2022/04/21 01:34:51;;;;;;;;;9.50;9.50;;;;;17.21;34.67;100394.38;2103173;27;47869;-56
2022/04/21 01:35:52;;;;;;;;;11.50;9.00;;;;;17.23;34.72;100385.28;2100336;28;47706;-55
2022/04/21 01:42:13;;;;;;;;;9.20;9.20;;;;;17.29;34.52;100384.97;2104043;27;47841;-53
2022/04/21 01:43:13;;;;;;;;;10.60;10.00;;;;;17.29;34.52;100387.66;2105434;27;48058;-54
2022/04/21 01:44:13;;;;;;;;;9.00;9.00;;;;;17.28;34.77;100388.63;2102928;27;46271;-54
2022/04/21 01:45:14;;;;;;;;;8.33;8.00;;;;;17.29;34.63;100384.13;2108884;27;47468;-54
2022/04/21 01:46:14;;;;;;;;;12.25;10.75;;;;;17.29;34.98;100381.44;2082635;28;47864;-54
2022/04/21 01:47:15;;;;;;;;;11.00;11.00;;;;;17.30;34.59;100383.16;2084228;28;47829;-52
2022/04/21 01:48:15;;;;;;;;;11.00;10.50;;;;;17.31;34.50;100380.38;2107681;27;47814;-54
2022/04/21 01:49:15;;;;;;;;;10.00;10.00;;;;;17.31;34.62;100375.03;2101855;28;47783;-54
2022/04/21 01:50:16;;;;;;;;;10.25;10.25;;;;;17.32;34.56;100378.56;2101494;27;47457;-54
2022/04/21 01:51:16;;;;;;;;;12.00;11.00;;;;;17.32;34.72;100376.75;2100880;27;48284;-54
2022/04/21 01:52:17;;;;;;;;;10.00;10.00;;;;;17.33;34.67;100377.63;2101101;28;47599;-55
2022/04/21 01:53:17;;;;;;;;;9.00;9.00;;;;;17.32;34.81;100376.75;2094886;28;47127;-51
2022/04/21 01:54:18;;;;;;;;;10.25;10.25;;;;;17.33;34.72;100372.25;2090959;28;47426;-53
2022/04/21 01:55:18;;;;;;;;;9.25;8.00;;;;;17.33;34.63;100374.94;2103618;27;47790;-53
2022/04/21 01:56:19;;;;;;;;;9.75;8.75;;;;;17.33;34.73;100373.13;2102189;27;48171;-53
2022/04/21 01:57:20;;;;;;;;;11.00;11.00;;;;;17.34;34.71;100374.84;2101118;28;47849;-55
2022/04/21 01:58:21;;;;;;;;;11.20;10.20;;;;;17.35;34.71;100370.34;2103746;27;47632;-55
2022/04/21 01:59:21;;;;;;;;;10.25;9.00;;;;;17.35;34.77;100371.22;2099178;27;47673;-55
2022/04/21 02:00:22;;;;;;;;;15.00;13.25;;;;;17.36;34.93;100362.22;2100682;28;47603;-54
2022/04/21 02:01:22;;;;;;;;;10.20;9.00;;;;;17.35;34.86;100371.22;2101445;27;47859;-54
2022/04/21 02:02:23;;;;;;;;;9.00;9.00;;;;;17.35;34.45;100376.56;2105484;27;47574;-53
2022/04/21 02:03:23;;;;;;;;;11.00;11.00;;;;;17.35;34.81;100368.53;2084542;28;47562;-54
2022/04/21 02:04:24;;;;;;;;;9.00;9.00;;;;;17.36;34.82;100367.56;2086824;28;47601;-55
2022/04/21 02:05:24;;;;;;;;;9.75;8.00;;;;;17.36;34.42;100358.66;2102138;28;47248;-53
2022/04/21 02:06:25;;;;;;;;;9.00;9.00;;;;;17.36;34.38;100364.91;2107183;27;47813;-53
2022/04/21 02:07:26;;;;;;;;;10.50;9.00;;;;;17.38;34.38;100369.31;2104229;27;48283;-55
2022/04/21 02:08:31;;;;;;;;;10.20;10.00;;;;;17.37;34.30;100365.75;2099602;28;47541;-54
2022/04/21 02:09:32;;;;;;;;;8.00;8.00;;;;;17.35;34.24;100365.84;2107740;27;47999;-55
2022/04/21 02:10:32;;;;;;;;;10.75;10.75;;;;;17.35;34.26;100365.84;2105355;27;47728;-54
2022/04/21 02:11:32;;;;;;;;;11.25;11.25;;;;;17.35;34.17;100364.97;2101270;27;47918;-53
2022/04/21 02:12:33;;;;;;;;;10.25;10.25;;;;;17.34;34.33;100363.25;2103596;27;47930;-54
2022/04/21 02:13:33;;;;;;;;;11.25;10.00;;;;;17.33;34.24;100362.38;2101943;27;45528;-55
2022/04/21 02:14:34;;;;;;;;;8.50;8.00;;;;;17.34;34.13;100358.75;2106168;27;47744;-54
2022/04/21 02:15:34;;;;;;;;;8.33;8.33;;;;;17.34;34.61;100355.22;2102156;27;47870;-55
2022/04/21 02:16:35;;;;;;;;;10.50;9.00;;;;;17.34;34.16;100358.75;2104015;27;48120;-55
2022/04/21 02:17:36;;;;;;;;;10.50;10.50;;;;;17.34;34.05;100353.41;2090479;28;47776;-55
2022/04/21 02:18:36;;;;;;;;;8.25;8.00;;;;;17.34;34.21;100350.72;2093467;27;47660;-57
2022/04/21 02:19:36;;;;;;;;;8.25;7.50;;;;;17.34;33.92;100352.53;2101258;27;47677;-54
2022/04/21 02:20:37;;;;;;;;;8.50;8.25;;;;;17.33;34.06;100359.72;2107885;27;47515;-54
2022/04/21 02:21:37;;;;;;;;;8.75;8.75;;;;;17.32;34.08;100349.94;2102600;27;47540;-53
2022/04/21 02:22:38;;;;;;;;;8.75;8.75;;;;;17.34;34.24;100360.56;2104880;27;48076;-54
2022/04/21 02:23:38;;;;;;;;;10.50;10.50;;;;;17.32;34.05;100349.94;2100409;27;47826;-52
2022/04/21 02:24:39;;;;;;;;;8.75;7.25;;;;;17.32;33.71;100343.69;2098253;28;47805;-53
2022/04/21 02:25:39;;;;;;;;;8.25;8.25;;;;;17.32;34.01;100349.06;2101279;27;47611;-52
2022/04/21 02:26:40;;;;;;;;;9.50;9.00;;;;;17.32;33.82;100343.69;2106665;27;48348;-53
2022/04/21 02:27:42;;;;;;;;;7.50;7.50;;;;;17.32;33.61;100343.69;2102281;27;47765;-54
2022/04/21 02:28:43;;;;;;;;;10.60;10.60;;;;;17.33;33.94;100343.63;2107075;27;47459;-53
2022/04/21 02:29:43;;;;;;;;;7.50;7.50;;;;;17.32;33.72;100338.34;2102607;27;47429;-55
2022/04/21 02:30:43;;;;;;;;;11.67;9.00;;;;;17.32;33.72;100339.22;2096010;28;47572;-53
2022/04/21 02:31:44;;;;;;;;;9.75;9.75;;;;;17.32;33.46;100338.34;2095685;28;46997;-54
2022/04/21 02:32:44;;;;;;;;;10.00;10.00;;;;;17.31;33.45;100337.47;2105045;28;47740;-54
2022/04/21 02:33:45;;;;;;;;;10.50;9.50;;;;;17.31;33.72;100340.16;2105812;27;47471;-53
2022/04/21 02:34:46;;;;;;;;;10.00;9.00;;;;;17.30;33.67;100334.88;2097902;28;45779;-50
2022/04/21 02:35:47;;;;;;;;;8.80;8.80;;;;;17.29;33.72;100330.47;2092271;28;48013;-55
2022/04/21 02:36:47;;;;;;;;;11.00;11.00;;;;;17.28;33.62;100340.34;2110830;27;47305;-53
2022/04/21 02:37:48;;;;;;;;;2.00;1.00;;;;;17.28;34.01;100334.97;2104067;27;48175;-53
2022/04/21 02:38:48;;;;;;;;;10.75;9.50;;;;;17.28;33.83;100334.09;2104732;27;47376;-54
2022/04/21 02:39:49;;;;;;;;;8.67;7.67;;;;;17.29;33.74;100333.16;2101337;27;47474;-52
2022/04/21 02:40:49;;;;;;;;;9.00;9.00;;;;;17.28;33.83;100334.97;2097363;27;47919;-54
2022/04/21 02:41:50;;;;;;;;;7.25;7.25;;;;;17.28;33.39;100336.78;2103843;27;47488;-54
2022/04/21 02:42:51;;;;;;;;;11.00;9.25;;;;;17.27;33.52;100332.34;2101172;27;48128;-53
2022/04/21 02:43:51;;;;;;;;;10.00;10.00;;;;;17.27;33.51;100332.34;2105872;27;47494;-52
2022/04/21 02:44:51;;;;;;;;;8.25;8.25;;;;;17.26;33.57;100327.94;2107600;27;47942;-52
2022/04/21 02:45:52;;;;;;;;;10.00;8.67;;;;;17.27;33.67;100332.34;2104163;27;47270;-52
2022/04/21 02:46:52;;;;;;;;;10.00;10.00;;;;;17.26;33.19;100327.94;2086779;28;47455;-51
2022/04/21 02:47:53;;;;;;;;;8.00;8.00;;;;;17.24;33.42;100330.72;2085441;28;46553;-53
2022/04/21 02:48:55;;;;;;;;;8.00;8.00;;;;;17.24;33.31;100327.16;2104155;27;47476;-52
2022/04/21 02:49:57;;;;;;;;;9.00;9.00;;;;;17.24;33.37;100325.34;2101982;27;47557;-53
2022/04/21 02:50:57;;;;;;;;;10.00;9.00;;;;;17.23;33.07;100326.28;2096912;28;48146;-52
2022/04/21 02:51:58;;;;;;;;;8.25;8.25;;;;;17.22;33.40;100327.25;2103156;27;47884;-52
2022/04/21 02:52:59;;;;;;;;;9.50;9.50;;;;;17.22;33.57;100323.69;2105329;27;47810;-54
2022/04/21 02:57:59;;;;;;;;;8.60;8.60;;;;;17.20;33.31;100326.47;2104942;27;47699;-54
2022/04/21 02:59:00;;;;;;;;;9.80;9.60;;;;;17.20;33.54;100323.78;2103264;28;47999;-53
2022/04/21 03:00:04;;;;;;;;;8.80;8.80;;;;;17.19;33.66;100319.38;2101815;27;47813;-53
2022/04/21 03:01:05;;;;;;;;;8.60;8.60;;;;;17.18;33.30;100317.66;2099704;27;48257;-55
2022/04/21 03:02:05;;;;;;;;;8.00;8.00;;;;;17.19;33.48;100323.88;2103050;28;47272;-54
2022/04/21 03:03:06;;;;;;;;;9.00;8.00;;;;;17.19;33.48;100324.75;2106625;27;47493;-54
2022/04/21 03:04:06;;;;;;;;;10.00;10.00;;;;;17.19;33.60;100323.88;2105296;27;47619;-53
2022/04/21 03:05:07;;;;;;;;;7.75;7.75;;;;;17.18;33.49;100325.69;2102460;27;47478;-53
2022/04/21 03:06:08;;;;;;;;;9.00;8.00;;;;;17.18;33.87;100332.88;2106411;27;48153;-55
2022/04/21 03:07:08;;;;;;;;;9.25;8.25;;;;;17.17;33.74;100312.38;2103579;27;47619;-52
2022/04/21 03:08:09;;;;;;;;;11.25;10.25;;;;;17.17;33.73;100317.75;2100170;27;47798;-54
2022/04/21 03:09:09;;;;;;;;;8.25;7.25;;;;;17.17;33.54;100323.09;2098197;27;47199;-53
2022/04/21 03:10:09;;;;;;;;;6.00;6.00;;;;;17.16;33.28;100321.38;2103342;28;48238;-54
2022/04/21 03:11:10;;;;;;;;;6.00;6.00;;;;;17.15;33.23;100328.56;2104199;27;47822;-54
2022/04/21 03:12:11;;;;;;;;;6.25;6.25;;;;;17.15;33.26;100317.84;2104966;27;48281;-54
2022/04/21 03:13:11;;;;;;;;;9.00;8.50;;;;;17.14;33.61;100316.06;2101173;27;47787;-55
2022/04/21 03:14:13;;;;;;;;;9.50;9.50;;;;;17.14;33.60;100315.22;2105282;27;47788;-53
2022/04/21 03:15:14;;;;;;;;;8.00;8.00;;;;;17.13;33.45;100325.06;2102871;27;48009;-54
2022/04/21 03:16:14;;;;;;;;;9.00;9.00;;;;;17.11;33.41;100313.56;2103226;27;47735;-54
2022/04/21 03:17:15;;;;;;;;;8.00;8.00;;;;;17.12;33.33;100327.84;2106136;27;47465;-50
2022/04/21 03:18:15;;;;;;;;;8.00;7.25;;;;;17.11;33.14;100320.75;2102793;28;48144;-54
2022/04/21 03:19:16;;;;;;;;;11.50;11.50;;;;;17.09;33.47;100310.09;2103897;27;47623;-54
2022/04/21 03:24:19;;;;;;;;;9.00;8.20;;;;;17.04;33.22;100312.19;2098840;27;48002;-55
2022/04/21 03:25:20;;;;;;;;;9.20;9.20;;;;;17.02;33.50;100306.91;2093617;28;48063;-56
2022/04/21 03:26:21;;;;;;;;;8.40;8.40;;;;;17.01;33.51;100305.16;2099124;28;48083;-55
2022/04/21 03:27:21;;;;;;;;;9.00;9.00;;;;;17.00;33.81;100310.59;2104657;27;47653;-50
2022/04/21 03:28:22;;;;;;;;;9.25;9.00;;;;;17.00;33.61;100302.56;2106215;27;48320;-52
2022/04/21 03:29:23;;;;;;;;;8.80;8.80;;;;;16.98;33.35;100299.97;2101377;27;47866;-54
2022/04/21 03:30:23;;;;;;;;;8.25;8.25;;;;;16.98;33.44;100302.66;2103998;27;47838;-53
2022/04/21 03:31:24;;;;;;;;;10.50;8.75;;;;;16.99;33.28;100303.50;2103851;27;47384;-56
2022/04/21 03:32:25;;;;;;;;;7.00;7.00;;;;;16.97;33.22;100300.91;2099601;27;47622;-55
2022/04/21 03:33:25;;;;;;;;;9.60;9.60;;;;;16.97;33.08;100300.91;2102009;27;47989;-53
2022/04/21 03:34:26;;;;;;;;;8.75;8.75;;;;;16.96;33.48;100301.88;2103481;28;47286;-52
2022/04/21 03:35:26;;;;;;;;;7.00;7.00;;;;;16.96;33.51;100301.88;2086088;28;47431;-52
2022/04/21 03:36:27;;;;;;;;;7.50;7.50;;;;;16.97;33.56;100300.06;2090309;28;47389;-54
2022/04/21 03:37:27;;;;;;;;;10.75;9.00;;;;;16.96;33.30;100298.31;2101883;28;47949;-53
2022/04/21 03:38:28;;;;;;;;;8.25;8.25;;;;;16.95;33.15;100300.16;2104156;27;47144;-55
2022/04/21 03:39:29;;;;;;;;;10.25;9.25;;;;;16.94;33.25;100300.22;2101155;27;47777;-50
2022/04/21 03:40:29;;;;;;;;;9.00;9.00;;;;;16.92;33.31;100302.13;2098993;27;47523;-50
2022/04/21 03:41:29;;;;;;;;;12.25;10.50;;;;;16.91;33.35;100305.78;2101346;27;47607;-52
2022/04/21 03:42:32;;;;;;;;;8.75;8.25;;;;;16.89;33.42;100302.28;2099358;27;47813;-54
2022/04/21 03:43:33;;;;;;;;;8.40;8.40;;;;;16.88;33.88;100304.09;2101723;27;47299;-53
2022/04/21 03:44:39;;;;;;;;;11.25;11.25;;;;;16.89;33.46;100294.25;2106875;27;47076;-53
2022/04/21 03:45:39;;;;;;;;;7.80;7.40;;;;;16.89;33.77;100304.97;2105635;27;47917;-51
2022/04/21 03:46:40;;;;;;;;;11.50;9.75;;;;;16.88;33.66;100296.06;2105635;27;47445;-54
2022/04/21 03:47:41;;;;;;;;;9.50;9.50;;;;;16.88;33.48;100295.19;2102286;28;47715;-54
2022/04/21 03:48:41;;;;;;;;;11.25;11.25;;;;;16.88;33.46;100298.72;2106719;27;47841;-54
2022/04/21 03:49:42;;;;;;;;;10.50;9.25;;;;;16.89;33.72;100304.97;2104575;27;47720;-54
2022/04/21 03:50:43;;;;;;;;;9.75;8.50;;;;;16.89;33.52;100291.56;2096162;28;47962;-54
2022/04/21 03:51:43;;;;;;;;;9.60;8.60;;;;;16.88;33.57;100290.69;2104525;27;47803;-54
2022/04/21 03:52:44;;;;;;;;;10.00;8.25;;;;;16.88;33.64;100298.72;2105929;27;47917;-53
2022/04/21 03:53:44;;;;;;;;;9.75;9.50;;;;;16.88;33.29;100290.69;2097071;27;47597;-53
2022/04/21 03:54:46;;;;;;;;;6.25;6.25;;;;;16.87;33.46;100299.69;2103422;27;48174;-54
2022/04/21 03:55:46;;;;;;;;;9.40;9.40;;;;;16.85;33.83;100293.53;2104662;27;47636;-55
2022/04/21 03:56:46;;;;;;;;;9.75;9.75;;;;;16.82;33.56;100304.44;2092182;28;47426;-52
2022/04/21 03:57:47;;;;;;;;;8.50;8.50;;;;;16.79;33.79;100298.38;2092578;28;47555;-54
2022/04/21 03:58:47;;;;;;;;;10.00;9.25;;;;;16.78;33.38;100308.25;2095879;28;47823;-54
2022/04/21 03:59:48;;;;;;;;;11.00;11.00;;;;;16.75;33.69;100303.88;2102614;27;47657;-54
2022/04/21 04:00:48;;;;;;;;;9.50;8.00;;;;;16.72;33.35;100308.56;2099462;27;47948;-55
2022/04/21 04:01:50;;;;;;;;;8.00;8.00;;;;;16.70;33.58;100307.78;2103588;27;47795;-52
2022/04/21 04:02:51;;;;;;;;;9.60;9.60;;;;;16.69;33.69;100303.38;2102192;27;47562;-54
2022/04/21 04:03:51;;;;;;;;;9.00;7.25;;;;;16.66;33.84;100309.72;2097006;27;46318;-55
2022/04/21 04:04:52;;;;;;;;;10.75;10.75;;;;;16.66;33.79;100306.19;2100516;27;47278;-52
2022/04/21 04:05:52;;;;;;;;;7.00;7.00;;;;;16.65;33.61;100308.00;2089257;28;47173;-53
2022/04/21 04:10:52;;;;;;;;;8.60;8.20;;;;;16.65;33.76;100309.81;2105626;27;47591;-55
2022/04/21 04:11:52;;;;;;;;;10.20;10.20;;;;;16.63;33.61;100303.66;2096799;27;47626;-52
2022/04/21 04:12:53;;;;;;;;;8.75;8.75;;;;;16.64;33.92;100306.28;2099716;27;47497;-55
2022/04/21 04:13:53;;;;;;;;;9.75;9.75;;;;;16.63;33.46;100299.16;2080745;28;47161;-55
2022/04/21 04:14:54;;;;;;;;;11.00;10.00;;;;;16.65;33.62;100307.13;2086466;28;46449;-53
2022/04/21 04:15:56;;;;;;;;;7.00;6.00;;;;;16.64;33.75;100305.38;2101086;27;47786;-54
2022/04/21 04:16:57;;;;;;;;;6.80;6.80;;;;;16.64;33.90;100298.22;2106334;27;47880;-53
2022/04/21 04:17:58;;;;;;;;;10.20;10.20;;;;;16.64;33.60;100308.94;2070641;28;47895;-55
2022/04/21 04:18:58;;;;;;;;;10.50;7.50;;;;;16.63;33.83;100311.69;2072508;28;47877;-55
2022/04/21 04:19:59;;;;;;;;;9.75;9.00;;;;;16.62;33.46;100308.13;2100231;27;48216;-53
2022/04/21 04:20:59;;;;;;;;;10.80;10.00;;;;;16.63;33.44;100303.66;2100122;27;47851;-55
2022/04/21 04:22:01;;;;;;;;;9.50;9.50;;;;;16.63;33.61;100309.00;2101261;27;47730;-54
2022/04/21 04:23:01;;;;;;;;;10.40;10.40;;;;;16.62;33.76;100312.63;2086843;28;47785;-57
2022/04/21 04:24:02;;;;;;;;;9.00;8.00;;;;;16.62;33.81;100308.13;2088350;28;47551;-55
2022/04/21 04:25:03;;;;;;;;;9.80;8.60;;;;;16.60;33.77;100303.81;2091590;27;48033;-51
2022/04/21 04:26:03;;;;;;;;;10.25;10.25;;;;;16.57;33.81;100307.53;2096299;27;46451;-54
2022/04/21 04:27:04;;;;;;;;;10.00;10.00;;;;;16.52;33.50;100312.28;2101221;27;47427;-55
2022/04/21 04:28:04;;;;;;;;;9.75;9.75;;;;;16.49;33.79;100312.41;2097028;27;47661;-54
2022/04/21 04:29:05;;;;;;;;;11.00;9.00;;;;;16.47;34.15;100309.81;2099640;27;47932;-53
2022/04/21 04:30:08;;;;;;;;;6.00;6.00;;;;;16.47;33.94;100307.13;2102682;27;47745;-54
2022/04/21 04:31:08;;;;;;;;;9.40;9.40;;;;;16.47;33.67;100315.19;2104314;28;47659;-51
2022/04/21 04:32:08;;;;;;;;;11.25;10.25;;;;;16.47;34.08;100308.94;2093005;28;47454;-54
2022/04/21 04:33:09;;;;;;;;;10.25;10.00;;;;;16.48;34.22;100313.38;2092553;28;47407;-53
2022/04/21 04:34:10;;;;;;;;;13.00;13.00;;;;;16.48;33.69;100310.69;2103664;28;47922;-54
2022/04/21 04:35:10;;;;;;;;;14.00;12.00;;;;;16.48;33.80;100316.03;2106450;27;47454;-52
2022/04/21 04:36:11;;;;;;;;;10.75;10.75;;;;;16.47;34.27;100320.53;2105294;27;47381;-53
2022/04/21 04:37:11;;;;;;;;;11.75;11.75;;;;;16.48;34.00;100318.72;2099262;27;47456;-52
2022/04/21 04:38:14;;;;;;;;;13.50;11.50;;;;;16.48;34.00;100314.22;2100212;27;47548;-54
2022/04/21 04:39:15;;;;;;;;;9.00;9.00;;;;;16.49;33.95;100313.28;2095834;28;47789;-53
2022/04/21 04:40:17;;;;;;;;;11.80;11.80;;;;;16.50;33.93;100316.81;2101285;27;47781;-51
2022/04/21 04:42:36;;;;;;;;;11.60;10.60;;;;;16.49;33.49;100317.78;2104899;27;47905;-53
2022/04/21 04:43:37;;;;;;;;;10.75;10.75;;;;;16.49;33.78;100315.09;2102421;27;47247;-55
2022/04/21 04:44:38;;;;;;;;;10.75;10.75;;;;;16.48;33.95;100322.25;2106972;27;47712;-51
2022/04/21 04:46:57;;;;;;;;;9.80;9.80;;;;;16.46;33.63;100321.47;2096106;27;48228;-53
2022/04/21 04:47:57;;;;;;;;;10.50;9.75;;;;;16.46;33.79;100328.66;2104299;27;47386;-53
2022/04/21 04:48:58;;;;;;;;;7.50;7.50;;;;;16.46;34.24;100331.34;2104053;27;47991;-53
2022/04/21 04:49:58;;;;;;;;;12.25;12.25;;;;;16.45;33.81;100329.59;2104030;27;47725;-54
2022/04/21 04:51:00;;;;;;;;;11.00;11.00;;;;;16.43;33.71;100332.38;2104004;27;47383;-54
2022/04/21 04:52:00;;;;;;;;;10.80;9.40;;;;;16.44;33.96;100341.25;2104126;27;47796;-53
2022/04/21 04:53:01;;;;;;;;;9.25;8.50;;;;;16.41;33.63;100338.75;2103869;27;48084;-50
2022/04/21 04:54:05;;;;;;;;;11.75;11.75;;;;;16.40;33.87;100334.34;2095265;28;47647;-52
2022/04/21 04:55:09;;;;;;;;;9.60;9.60;;;;;16.40;34.30;100337.88;2095272;28;46365;-54
2022/04/21 04:56:10;;;;;;;;;10.40;10.40;;;;;16.39;34.30;100332.63;2103995;27;47733;-54
2022/04/21 04:57:10;;;;;;;;;9.75;9.75;;;;;16.38;33.76;100326.34;2104073;28;47648;-50
2022/04/21 04:58:11;;;;;;;;;17.75;17.25;;;;;16.38;33.67;100325.50;2103957;27;47253;-51
2022/04/21 04:59:11;;;;;;;;;14.75;14.75;;;;;16.37;33.99;100334.47;2104181;27;47588;-54
2022/04/21 05:00:13;;;;;;;;;15.50;14.25;;;;;16.36;34.25;100332.75;2103104;27;47458;-56
2022/04/21 05:01:18;;;;;;;;;13.60;13.00;;;;;16.36;34.09;100333.59;2102893;27;47648;-55
2022/04/21 05:02:20;;;;;;;;;14.60;14.20;;;;;16.36;34.02;100330.06;2104123;27;47472;-54
2022/04/21 05:03:21;;;;;;;;;12.20;10.60;;;;;16.36;34.09;100330.94;2103761;27;47583;-53
2022/04/21 05:04:23;;;;;;;;;12.20;10.80;;;;;16.36;34.16;100330.94;2104053;27;47600;-54